Time;durP1;ratioP1;P1;durP2;ratioP2;P2;SDS_P1;SDS_P2;PMS_P1;PMS_P2;Temp;Humidity;BMP_temperature;BMP_pressure;BME280_temperature;BME280_humidity;BME280_pressure;Samples;Min_cycle;Max_cycle;Signal;HPM_P1;HPM_P2
2022/01/17 00:00:37;;;;;;;75.65;38.13;;;;;;;5.18;100.00;103050.91;5003598;28;20065;-59
2022/01/17 00:03:03;;;;;;;73.15;38.15;;;;;;;5.17;100.00;103060.97;5002905;28;20480;-60
2022/01/17 00:05:30;;;;;;;76.28;36.75;;;;;;;5.18;100.00;103068.13;5002928;28;20033;-59
2022/01/17 00:07:55;;;;;;;78.07;37.78;;;;;;;5.19;100.00;103068.97;5002891;28;20025;-59
2022/01/17 00:10:21;;;;;;;74.03;36.88;;;;;;;5.19;100.00;103072.56;5006076;28;20278;-59
2022/01/17 00:12:50;;;;;;;68.38;34.80;;;;;;;5.17;100.00;103066.41;5005927;28;20103;-59
2022/01/17 00:15:27;;;;;;;68.53;33.65;;;;;;;5.18;100.00;103070.84;5006111;28;20057;-59
2022/01/17 00:18:19;;;;;;;64.60;32.90;;;;;;;5.18;100.00;103070.00;5005882;28;20049;-59
2022/01/17 00:20:37;;;;;;;64.70;33.15;;;;;;;5.18;100.00;103065.41;5006087;28;20034;-59
2022/01/17 00:23:03;;;;;;;64.80;32.28;;;;;;;5.17;100.00;103071.84;5001946;28;20057;-60
2022/01/17 00:25:28;;;;;;;64.53;32.42;;;;;;;5.23;100.00;103064.97;5006547;28;20022;-59
2022/01/17 00:27:54;;;;;;;63.83;31.45;;;;;;;5.24;100.00;103063.97;5006555;28;20229;-58
2022/01/17 00:30:19;;;;;;;64.05;31.55;;;;;;;5.30;100.00;103060.66;5006349;28;20473;-59
2022/01/17 00:32:45;;;;;;;65.72;30.95;;;;;;;5.24;100.00;103057.66;5005959;28;20084;-59
2022/01/17 00:35:10;;;;;;;59.83;31.67;;;;;;;5.23;100.00;103055.94;5006504;28;20038;-59
2022/01/17 00:37:36;;;;;;;67.00;33.15;;;;;;;5.24;100.00;103063.13;5004873;28;20018;-60
2022/01/17 00:40:01;;;;;;;63.38;31.83;;;;;;;5.24;100.00;103054.94;5005993;28;20033;-60
2022/01/17 00:42:27;;;;;;;67.28;32.28;;;;;;;5.23;100.00;103067.69;5006145;28;20050;-59
2022/01/17 00:44:52;;;;;;;59.97;32.90;;;;;;;5.20;100.00;103067.97;5006328;28;20038;-59
2022/01/17 00:47:17;;;;;;;64.85;31.70;;;;;;;5.20;100.00;103065.25;5005435;28;20068;-59
2022/01/17 00:49:43;;;;;;;63.63;32.75;;;;;;;5.20;100.00;103065.25;5006631;28;20037;-59
2022/01/17 00:52:08;;;;;;;61.60;31.45;;;;;;;5.23;100.00;103064.97;5005540;28;20026;-60
2022/01/17 00:54:33;;;;;;;56.63;31.40;;;;;;;5.23;100.00;103064.97;5004783;28;20068;-60
2022/01/17 00:56:59;;;;;;;57.30;30.55;;;;;;;5.21;100.00;103077.88;5005925;28;20049;-59
2022/01/17 00:59:24;;;;;;;59.63;30.95;;;;;;;5.20;100.00;103077.00;5005477;28;20025;-59
2022/01/17 01:01:49;;;;;;;67.63;31.35;;;;;;;5.21;100.00;103073.28;5006119;28;20030;-58
2022/01/17 01:04:14;;;;;;;60.00;30.40;;;;;;;5.21;100.00;103066.97;5005260;28;20039;-59
2022/01/17 01:06:40;;;;;;;60.28;28.67;;;;;;;5.23;100.00;103077.75;5005696;28;20038;-59
2022/01/17 01:09:05;;;;;;;53.67;27.65;;;;;;;5.23;100.00;103069.56;5004574;28;20342;-60
2022/01/17 01:11:30;;;;;;;46.83;26.55;;;;;;;5.21;100.00;103088.75;5005158;28;20084;-59
2022/01/17 01:13:56;;;;;;;42.78;23.67;;;;;;;5.19;100.00;103088.06;5006095;28;20018;-59
2022/01/17 01:16:30;;;;;;;45.17;24.10;;;;;;;5.19;100.00;103086.19;5004858;28;20580;-59
2022/01/17 01:27:41;;;;;;;45.55;22.25;;;;;;;5.29;100.00;103077.19;5004791;28;20397;-58
2022/01/17 01:29:45;;;;;;;45.33;23.02;;;;;;;5.28;100.00;103076.31;5004933;28;20048;-59
2022/01/17 01:32:12;;;;;;;39.72;21.80;;;;;;;5.31;100.00;103078.75;5005307;28;20053;-59
2022/01/17 01:34:42;;;;;;;44.63;22.05;;;;;;;5.29;100.00;103079.91;5005313;28;20034;-59
2022/01/17 01:37:07;;;;;;;37.08;20.80;;;;;;;5.28;100.00;103076.31;5004519;28;20022;-59
2022/01/17 01:39:34;;;;;;;39.25;19.83;;;;;;;5.30;100.00;103081.63;5004619;28;20026;-59
2022/01/17 01:41:59;;;;;;;44.15;22.65;;;;;;;5.30;100.00;103081.63;5002658;28;20073;-59
2022/01/17 01:44:26;;;;;;;39.92;22.40;;;;;;;5.30;100.00;103096.09;5005001;28;20549;-58
2022/01/17 01:46:53;;;;;;;45.22;22.38;;;;;;;5.35;100.00;103099.25;5005094;28;20029;-59
2022/01/17 01:49:20;;;;;;;40.22;21.55;;;;;;;5.27;100.00;103099.13;5004427;28;20039;-59
2022/01/17 01:51:46;;;;;;;50.28;24.33;;;;;;;5.21;100.00;103102.38;5004860;28;20018;-58
2022/01/17 01:54:12;;;;;;;45.60;23.13;;;;;;;5.14;100.00;103096.63;5003768;28;20030;-59
2022/01/17 01:56:40;;;;;;;45.17;23.15;;;;;;;5.04;100.00;103082.13;5004267;28;20064;-59
2022/01/17 01:59:06;;;;;;;41.97;21.55;;;;;;;4.93;100.00;103091.28;5004452;28;20121;-59
2022/01/17 02:01:32;;;;;;;45.95;23.27;;;;;;;4.84;100.00;103097.56;5004927;28;20132;-60
2022/01/17 02:03:57;;;;;;;42.45;21.15;;;;;;;4.75;100.00;103094.78;5004479;28;20048;-59
2022/01/17 02:06:23;;;;;;;38.50;20.92;;;;;;;4.69;100.00;103099.78;5004101;28;20022;-59
2022/01/17 02:08:48;;;;;;;46.30;21.35;;;;;;;4.66;100.00;103099.19;5003452;28;20052;-59
2022/01/17 02:11:13;;;;;;;40.42;20.88;;;;;;;4.58;100.00;103102.59;5003735;28;20033;-59
2022/01/17 02:13:39;;;;;;;44.63;20.35;;;;;;;4.51;100.00;103100.53;5004253;28;20038;-59
2022/01/17 02:16:10;;;;;;;39.90;18.85;;;;;;;4.46;100.00;103103.69;5004329;28;20091;-59
2022/01/17 02:18:35;;;;;;;38.08;18.70;;;;;;;4.39;100.00;103110.66;5004620;28;20029;-59
2022/01/17 02:21:19;;;;;;;42.10;19.42;;;;;;;4.32;100.00;103102.19;5004119;28;20417;-59
2022/01/17 02:23:51;;;;;;;38.90;18.10;;;;;;;4.29;100.00;103098.88;5003496;28;20105;-59
2022/01/17 02:26:18;;;;;;;34.40;17.10;;;;;;;4.25;100.00;103092.81;5003305;28;20450;-59
2022/01/17 02:28:48;;;;;;;38.00;17.77;;;;;;;4.23;100.00;103088.53;5003967;28;20014;-59
2022/01/17 02:31:14;;;;;;;35.42;18.00;;;;;;;4.18;100.00;103093.50;5003145;28;20099;-59
2022/01/17 02:33:40;;;;;;;33.90;17.20;;;;;;;4.13;100.00;103097.47;5004192;28;20022;-59
2022/01/17 02:36:06;;;;;;;34.65;16.02;;;;;;;4.09;100.00;103101.47;5003434;28;20042;-59
2022/01/17 02:38:31;;;;;;;37.22;16.63;;;;;;;4.04;100.00;103103.72;5003192;28;20042;-59
2022/01/17 02:40:56;;;;;;;37.90;18.10;;;;;;;4.03;100.00;103102.00;5003174;28;20753;-59
2022/01/17 02:43:23;;;;;;;36.17;17.70;;;;;;;3.99;100.00;103103.25;5004105;28;20390;-59
2022/01/17 02:48:24;;;;;;;29.80;15.55;;;;;;;3.89;100.00;103096.88;5003711;28;20030;-59
2022/01/17 02:50:50;;;;;;;40.55;15.80;;;;;;;3.82;100.00;103101.97;5002590;28;20026;-59
2022/01/17 02:53:16;;;;;;;30.23;15.55;;;;;;;3.79;100.00;103098.66;5002771;28;20061;-59
2022/01/17 02:55:49;;;;;;;34.63;16.30;;;;;;;3.74;100.00;103103.63;5003236;28;20556;-59
2022/01/17 02:58:17;;;;;;;36.28;15.15;;;;;;;3.70;100.00;103105.75;5003528;28;20233;-59
2022/01/17 03:00:43;;;;;;;41.35;16.40;;;;;;;3.69;100.00;103109.44;5004063;28;20126;-59
2022/01/17 03:03:16;;;;;;;37.65;16.67;;;;;;;3.67;100.00;103105.16;5024678;23;20140;-59
2022/01/17 03:05:42;;;;;;;32.50;15.70;;;;;;;3.62;100.00;103102.81;5023435;28;20052;-59
2022/01/17 03:08:07;;;;;;;37.10;16.83;;;;;;;3.62;100.00;103102.81;5022704;28;20471;-59
2022/01/17 03:13:08;;;;;;;38.92;18.02;;;;;;;3.60;100.00;103100.25;5022682;28;20040;-58
2022/01/17 03:15:33;;;;;;;37.47;16.58;;;;;;;3.58;100.00;103095.91;5023284;28;20057;-58
2022/01/17 03:17:59;;;;;;;36.58;16.38;;;;;;;3.57;100.00;103078.75;5024010;28;20630;-59
2022/01/17 03:20:25;;;;;;;36.05;17.10;;;;;;;3.57;100.00;103076.03;5023300;28;20392;-59
2022/01/17 03:22:51;;;;;;;38.63;15.95;;;;;;;3.53;100.00;103087.28;5022265;28;20025;-59
2022/01/17 03:25:16;;;;;;;37.13;16.25;;;;;;;3.50;100.00;103080.28;5022994;28;20030;-59
2022/01/17 03:27:41;;;;;;;40.60;16.10;;;;;;;3.51;100.00;103083.84;5022462;28;20026;-59
2022/01/17 03:30:07;;;;;;;30.95;16.23;;;;;;;3.50;100.00;103099.28;5023238;28;20035;-59
2022/01/17 03:32:33;;;;;;;30.13;15.50;;;;;;;3.51;100.00;103100.16;5022801;28;20446;-59
2022/01/17 03:34:58;;;;;;;33.45;15.77;;;;;;;3.49;100.00;103102.97;5023999;28;20032;-59
2022/01/17 03:37:23;;;;;;;34.15;15.77;;;;;;;3.48;100.00;103103.97;5021383;28;20025;-59
2022/01/17 03:39:49;;;;;;;33.65;16.33;;;;;;;3.48;100.00;103103.97;5023113;28;20017;-58
2022/01/17 03:42:15;;;;;;;34.47;15.75;;;;;;;3.45;100.00;103101.53;5023757;28;20026;-58
2022/01/17 03:44:40;;;;;;;35.72;15.15;;;;;;;3.41;100.00;103101.91;5027046;28;20034;-59
2022/01/17 03:47:06;;;;;;;32.05;14.52;;;;;;;3.35;100.00;103101.44;5026562;28;20120;-59
2022/01/17 03:49:31;;;;;;;33.65;14.45;;;;;;;3.38;100.00;103100.31;5027029;28;20044;-59
2022/01/17 03:51:57;;;;;;;29.23;14.00;;;;;;;3.35;100.00;103098.72;5027075;28;20479;-59
2022/01/17 03:54:22;;;;;;;33.35;15.15;;;;;;;3.30;100.00;103091.94;5025696;28;20484;-59
2022/01/17 03:56:47;;;;;;;33.47;14.73;;;;;;;3.27;100.00;103093.06;5025794;28;20087;-59
2022/01/17 03:59:12;;;;;;;34.63;14.35;;;;;;;3.29;100.00;103099.22;5026504;28;20040;-59
2022/01/17 04:01:38;;;;;;;32.30;14.30;;;;;;;3.25;100.00;103102.34;5026639;28;20045;-59
2022/01/17 04:04:04;;;;;;;28.38;13.73;;;;;;;3.22;100.00;103108.00;5026019;28;20106;-59
2022/01/17 04:06:29;;;;;;;34.65;13.55;;;;;;;3.21;100.00;103109.00;5027053;28;20037;-59
2022/01/17 04:08:54;;;;;;;37.42;13.73;;;;;;;3.19;100.00;103103.69;5026007;28;20030;-59
2022/01/17 04:11:20;;;;;;;33.10;13.68;;;;;;;3.22;100.00;103105.28;5025373;28;20389;-59
2022/01/17 04:13:46;;;;;;;27.83;12.63;;;;;;;3.24;100.00;103103.28;5026451;28;20037;-58
2022/01/17 04:16:12;;;;;;;29.75;13.23;;;;;;;3.25;100.00;103099.63;5025960;28;20022;-59
2022/01/17 04:18:38;;;;;;;27.90;12.38;;;;;;;3.29;100.00;103101.06;5026266;28;20025;-59
2022/01/17 04:21:04;;;;;;;24.85;11.60;;;;;;;3.35;100.00;103106.88;5026079;28;20028;-60
2022/01/17 04:23:30;;;;;;;35.40;12.07;;;;;;;3.34;100.00;103113.25;5025178;28;20029;-59
2022/01/17 04:25:55;;;;;;;31.80;11.63;;;;;;;3.36;100.00;103107.72;5025527;28;20071;-59
2022/01/17 04:28:21;;;;;;;23.02;10.27;;;;;;;3.35;100.00;103117.72;5025254;28;20626;-59
2022/01/17 04:30:46;;;;;;;27.58;11.07;;;;;;;3.30;100.00;103119.09;5022089;28;20064;-59
2022/01/17 04:33:12;;;;;;;30.25;10.55;;;;;;;3.28;100.00;103119.22;5024059;28;20036;-59
2022/01/17 04:35:38;;;;;;;24.05;10.25;;;;;;;3.28;100.00;103110.22;5025697;28;20024;-59
2022/01/17 04:38:06;;;;;;;21.55;10.07;;;;;;;3.23;100.00;103110.59;5019235;28;20142;-59
2022/01/17 04:40:37;;;;;;;24.27;9.65;;;;;;;3.18;100.00;103120.97;5024542;28;20427;-59
2022/01/17 04:43:12;;;;;;;26.27;10.25;;;;;;;3.15;100.00;103118.53;5024778;28;20092;-59
2022/01/17 04:45:37;;;;;;;19.38;9.93;;;;;;;3.11;100.00;103120.63;5025939;28;20033;-59
2022/01/17 04:48:03;;;;;;;22.80;9.82;;;;;;;3.22;100.00;103099.84;5025503;28;20029;-58
2022/01/17 04:50:29;;;;;;;23.35;9.00;;;;;;;3.14;100.00;103114.06;5024619;28;20033;-59
2022/01/17 04:52:56;;;;;;;25.27;10.10;;;;;;;3.10;100.00;103118.03;5023956;28;20075;-59
2022/01/17 04:55:21;;;;;;;21.25;9.38;;;;;;;3.05;100.00;103128.41;5023346;28;20219;-59
2022/01/17 04:57:48;;;;;;;22.75;8.82;;;;;;;3.01;100.00;103130.50;5023823;28;20028;-59
2022/01/17 05:00:17;;;;;;;25.73;9.82;;;;;;;2.97;100.00;103139.88;5017837;28;20033;-58
2022/01/17 05:02:43;;;;;;;17.92;8.63;;;;;;;2.95;100.00;103136.44;5020157;28;20148;-59
2022/01/17 05:05:09;;;;;;;22.58;8.63;;;;;;;2.93;100.00;103132.97;5021973;28;20120;-58
2022/01/17 05:07:35;;;;;;;24.63;8.70;;;;;;;2.97;100.00;103145.31;5022785;28;20033;-58
2022/01/17 05:10:06;;;;;;;27.60;9.57;;;;;;;2.96;100.00;103151.72;5025266;28;20025;-59
2022/01/17 05:12:32;;;;;;;22.77;9.30;;;;;;;2.98;100.00;103157.88;5023889;28;20038;-59
2022/01/17 05:14:58;;;;;;;21.33;8.50;;;;;;;2.97;100.00;103153.44;5025588;28;20364;-59
2022/01/17 05:19:57;;;;;;;20.33;8.20;;;;;;;3.00;100.00;103150.50;5024538;28;20029;-59
2022/01/17 05:22:26;;;;;;;24.20;8.68;;;;;;;3.02;100.00;103153.94;5023836;28;20090;-58
2022/01/17 05:24:51;;;;;;;20.90;8.05;;;;;;;3.06;100.00;103147.28;5019487;28;20096;-59
2022/01/17 05:27:16;;;;;;;18.55;8.13;;;;;;;3.12;100.00;103146.78;5023924;28;20022;-59
2022/01/17 05:29:42;;;;;;;23.67;8.70;;;;;;;3.15;100.00;103151.09;5025079;28;20025;-59
2022/01/17 05:32:08;;;;;;;24.90;8.43;;;;;;;3.13;100.00;103145.78;5023273;28;20025;-59
2022/01/17 05:34:34;;;;;;;19.13;8.18;;;;;;;3.12;100.00;103154.91;5024870;28;20021;-59
2022/01/17 05:37:00;;;;;;;19.25;8.65;;;;;;;3.07;100.00;103157.13;5023920;28;20030;-58
2022/01/17 05:39:26;;;;;;;20.27;7.88;;;;;;;3.02;100.00;103164.78;5024006;28;20067;-58
2022/01/17 05:41:51;;;;;;;22.02;8.40;;;;;;;3.01;100.00;103170.34;5023737;28;20021;-59
2022/01/17 05:44:16;;;;;;;20.77;7.90;;;;;;;2.99;100.00;103167.78;5024657;28;20523;-58
2022/01/17 05:46:41;;;;;;;29.92;9.20;;;;;;;2.96;100.00;103165.31;5011053;28;20036;-59
2022/01/17 05:49:07;;;;;;;22.15;9.20;;;;;;;2.94;100.00;103163.69;5012756;28;20040;-58
2022/01/17 05:51:32;;;;;;;23.17;8.73;;;;;;;2.91;100.00;103162.09;5024720;28;20057;-59
2022/01/17 05:53:57;;;;;;;24.08;9.75;;;;;;;2.92;100.00;103158.38;5023871;28;20057;-59
2022/01/17 05:56:23;;;;;;;25.23;9.55;;;;;;;2.91;100.00;103156.66;5024207;28;20026;-59
2022/01/17 05:58:48;;;;;;;22.30;9.68;;;;;;;2.91;100.00;103162.09;5024021;28;20091;-58
2022/01/17 06:01:14;;;;;;;25.25;10.55;;;;;;;2.93;100.00;103151.09;5023403;28;20040;-59
2022/01/17 06:03:39;;;;;;;29.92;11.18;;;;;;;3.01;100.00;103167.66;5024029;28;20119;-59
2022/01/17 06:06:06;;;;;;;23.77;11.75;;;;;;;3.01;100.00;103163.06;5020994;28;20436;-58
2022/01/17 06:08:31;;;;;;;31.80;12.45;;;;;;;3.04;100.00;103162.84;5023790;28;20678;-59
2022/01/17 06:10:57;;;;;;;30.38;12.98;;;;;;;3.09;100.00;103159.72;5022856;28;20095;-59
2022/01/17 06:13:22;;;;;;;31.27;12.80;;;;;;;3.13;100.00;103166.63;5023389;28;20547;-59
2022/01/17 06:15:47;;;;;;;27.73;13.43;;;;;;;3.11;100.00;103174.91;5024240;28;20039;-59
2022/01/17 06:18:12;;;;;;;31.48;13.10;;;;;;;3.12;100.00;103171.22;5023530;28;20492;-59
2022/01/17 06:20:38;;;;;;;26.90;13.18;;;;;;;3.12;100.00;103162.19;5023552;28;20503;-59
2022/01/17 06:23:03;;;;;;;33.38;13.52;;;;;;;3.12;100.00;103154.91;5022344;28;20029;-60
2022/01/17 06:25:28;;;;;;;29.30;15.13;;;;;;;3.13;100.00;103166.63;5024177;28;20426;-59
2022/01/17 06:27:54;;;;;;;33.10;14.60;;;;;;;3.11;100.00;103165.91;5024337;28;20388;-58
2022/01/17 06:30:19;;;;;;;29.02;14.55;;;;;;;3.14;100.00;103179.22;5020643;28;20072;-59
2022/01/17 06:32:44;;;;;;;32.13;14.38;;;;;;;3.10;100.00;103191.34;5024331;28;20094;-58
2022/01/17 06:35:10;;;;;;;33.13;15.93;;;;;;;3.04;100.00;103181.84;5023260;28;20072;-59
2022/01/17 06:37:38;;;;;;;44.75;17.10;;;;;;;3.02;100.00;103183.81;5022970;28;20038;-59
2022/01/17 06:40:04;;;;;;;31.77;16.20;;;;;;;3.03;100.00;103182.81;5023688;28;20044;-59
2022/01/17 06:42:29;;;;;;;38.83;15.77;;;;;;;2.99;100.00;103181.34;5023887;28;20417;-59
2022/01/17 06:44:55;;;;;;;33.63;15.27;;;;;;;3.07;100.00;103184.28;5023383;28;20416;-59
2022/01/17 06:47:20;;;;;;;32.83;15.30;;;;;;;3.11;100.00;103179.50;5023468;28;20013;-59
2022/01/17 06:49:46;;;;;;;27.75;14.20;;;;;;;3.12;100.00;103182.06;5024049;28;20230;-59
2022/01/17 06:52:11;;;;;;;28.42;13.70;;;;;;;3.16;100.00;103187.25;5022403;28;20010;-59
2022/01/17 06:54:36;;;;;;;29.67;14.45;;;;;;;3.21;100.00;103193.19;5023746;28;20018;-59
2022/01/17 06:57:02;;;;;;;31.27;13.43;;;;;;;3.28;100.00;103205.25;5023458;28;20029;-59
2022/01/17 06:59:27;;;;;;;29.80;13.57;;;;;;;3.28;100.00;103206.13;5023955;28;20014;-59
2022/01/17 07:01:53;;;;;;;32.10;13.82;;;;;;;3.23;100.00;103212.91;5021883;28;20411;-59
2022/01/17 07:04:18;;;;;;;32.25;13.45;;;;;;;3.25;100.00;103213.69;5022937;28;20037;-59
2022/01/17 07:06:44;;;;;;;26.52;12.10;;;;;;;3.23;100.00;103207.50;5023200;28;20017;-60
2022/01/17 07:09:11;;;;;;;33.45;14.82;;;;;;;3.14;100.00;103228.09;5022802;28;20527;-60
2022/01/17 07:11:38;;;;;;;29.45;14.55;;;;;;;3.14;100.00;103233.53;5023179;28;20033;-59
2022/01/17 07:14:11;;;;;;;33.30;15.15;;;;;;;3.16;100.00;103214.41;5023468;28;20040;-59
2022/01/17 07:16:41;;;;;;;33.80;14.95;;;;;;;3.16;100.00;103203.56;5023678;28;20094;-60
2022/01/17 07:19:07;;;;;;;33.92;16.00;;;;;;;3.18;100.00;103201.56;5027355;28;20025;-59
2022/01/17 07:21:33;;;;;;;33.10;15.40;;;;;;;3.25;100.00;103197.38;5026788;28;20053;-59
2022/01/17 07:23:58;;;;;;;34.35;16.05;;;;;;;3.19;100.00;103184.28;5027022;28;20522;-59
2022/01/17 07:26:23;;;;;;;40.50;16.98;;;;;;;3.14;100.00;103184.66;5027040;28;20037;-59
2022/01/17 07:28:49;;;;;;;39.30;19.40;;;;;;;3.12;100.00;103195.63;5027504;28;20018;-59
2022/01/17 07:31:17;;;;;;;32.67;16.67;;;;;;;3.10;100.00;103203.06;5026448;28;20506;-59
2022/01/17 07:33:42;;;;;;;;;;;;;;;3.15;100.00;103208.13;5028025;28;20033;-60
2022/01/17 07:36:08;;;;;;;36.30;18.20;;;;;;;3.07;100.00;103216.88;5026679;28;19909;-59
2022/01/17 07:38:34;;;;;;;36.88;18.50;;;;;;;3.06;100.00;103219.72;5026437;28;20280;-60
2022/01/17 07:41:01;;;;;;;34.70;17.65;;;;;;;3.06;100.00;103228.72;5027070;28;20017;-59
2022/01/17 07:43:26;;;;;;;39.70;19.73;;;;;;;3.01;100.00;103230.09;5027358;28;20030;-59
2022/01/17 07:46:22;;;;;;;39.67;21.23;;;;;;;2.99;100.00;103232.94;5026786;28;20072;-60
2022/01/17 07:51:25;;;;;;;38.78;20.35;;;;;;;3.01;100.00;103243.66;5026538;28;20228;-60
2022/01/17 07:53:51;;;;;;;41.83;20.70;;;;;;;3.00;100.00;103247.38;5027083;28;20025;-59
2022/01/17 07:56:16;;;;;;;44.80;20.63;;;;;;;2.99;100.00;103241.06;5025922;28;20346;-60
2022/01/17 07:58:41;;;;;;;34.55;19.20;;;;;;;3.01;100.00;103244.53;5027021;28;20454;-60
2022/01/17 08:01:08;;;;;;;39.40;20.60;;;;;;;3.04;100.00;103247.00;5026104;28;20130;-60
2022/01/17 08:03:33;;;;;;;45.10;21.02;;;;;;;3.18;100.00;103253.16;5024956;28;20160;-59
2022/01/17 08:05:59;;;;;;;38.42;19.92;;;;;;;3.20;100.00;103256.63;5026966;28;20056;-59
2022/01/17 08:08:24;;;;;;;38.97;19.77;;;;;;;3.25;100.00;103255.28;5025749;28;20022;-59
2022/01/17 08:10:49;;;;;;;41.05;19.10;;;;;;;3.27;100.00;103263.28;5026352;28;20021;-60
2022/01/17 08:13:15;;;;;;;34.03;18.40;;;;;;;3.35;100.00;103258.13;5009779;28;20032;-60
2022/01/17 08:15:40;;;;;;;40.95;19.80;;;;;;;3.40;100.00;103261.31;5024783;28;20036;-60
2022/01/17 08:18:05;;;;;;;45.28;21.48;;;;;;;3.50;100.00;103262.28;5026312;28;20029;-60
2022/01/17 08:20:31;;;;;;;39.38;21.33;;;;;;;3.65;100.00;103265.63;5026387;28;20018;-59
2022/01/17 08:22:57;;;;;;;38.10;20.17;;;;;;;3.69;100.00;103272.50;5024228;28;20061;-60
2022/01/17 08:25:23;;;;;;;37.55;20.35;;;;;;;3.72;100.00;103269.53;5025277;28;20037;-60
2022/01/17 08:27:48;;;;;;;39.80;20.80;;;;;;;3.72;100.00;103272.25;5025859;28;20443;-60
2022/01/17 08:30:14;;;;;;;40.08;20.38;;;;;;;3.77;100.00;103264.59;5025588;28;20137;-59
2022/01/17 08:32:40;;;;;;;45.30;21.95;;;;;;;3.85;100.00;103277.53;5026014;28;20061;-60
2022/01/17 08:35:06;;;;;;;43.63;22.15;;;;;;;3.93;100.00;103275.06;5026002;28;20444;-61
2022/01/17 08:37:31;;;;;;;41.78;21.13;;;;;;;3.96;100.00;103277.53;5022584;28;20052;-61
2022/01/17 08:39:58;;;;;;;44.08;21.25;;;;;;;4.01;100.00;103264.41;5007278;28;20022;-60
2022/01/17 08:42:24;;;;;;;44.67;22.50;;;;;;;4.08;100.00;103254.75;5005806;28;20033;-60
2022/01/17 08:44:50;;;;;;;44.15;22.05;;;;;;;4.12;100.00;103253.50;5018631;28;20037;-60
2022/01/17 08:47:19;;;;;;;45.53;23.42;;;;;;;4.16;100.00;103243.22;5026227;28;20036;-61
2022/01/17 08:49:45;;;;;;;42.85;22.00;;;;;;;4.23;100.00;103238.97;5024381;28;20025;-61
2022/01/17 08:52:10;;;;;;;51.80;25.40;;;;;;;4.29;100.00;103252.06;5024009;28;20026;-61
2022/01/17 08:54:36;;;;;;;50.95;22.25;;;;;;;4.36;100.00;103263.31;5026018;28;20203;-61
2022/01/17 08:57:02;;;;;;;49.50;22.40;;;;;;;4.40;100.00;103257.44;5025656;28;20476;-60
2022/01/17 08:59:29;;;;;;;46.28;21.73;;;;;;;4.45;100.00;103264.34;5026024;28;20061;-60
2022/01/17 09:01:54;;;;;;;47.78;21.88;;;;;;;4.50;100.00;103256.66;5025646;28;20083;-60
2022/01/17 09:04:20;;;;;;;42.50;20.90;;;;;;;4.54;100.00;103264.44;5023265;28;20321;-60
2022/01/17 09:06:46;;;;;;;44.13;22.60;;;;;;;4.58;100.00;103270.47;5024808;28;20548;-60
2022/01/17 09:09:11;;;;;;;52.63;20.92;;;;;;;4.63;100.00;103274.53;5025429;28;20023;-60
2022/01/17 09:11:36;;;;;;;45.75;18.80;;;;;;;4.67;100.00;103269.69;5025191;28;20108;-61
2022/01/17 09:14:02;;;;;;;42.70;18.63;;;;;;;4.74;100.00;103275.47;5025494;28;20030;-61
2022/01/17 09:16:27;;;;;;;44.40;20.35;;;;;;;4.77;100.00;103281.50;5025595;28;20109;-60
2022/01/17 09:18:52;;;;;;;40.35;19.08;;;;;;;4.90;100.00;103294.91;5025247;28;20095;-60
2022/01/17 09:21:18;;;;;;;34.70;19.08;;;;;;;5.07;100.00;103302.50;5022447;28;20022;-60
2022/01/17 09:23:44;;;;;;;37.13;19.15;;;;;;;5.39;100.00;103305.09;5023437;28;20484;-60
2022/01/17 09:26:09;;;;;;;41.90;18.83;;;;;;;5.46;100.00;103305.41;5025043;28;20100;-60
2022/01/17 09:28:35;;;;;;;42.47;18.55;;;;;;;5.41;100.00;103302.22;5025278;28;20736;-60
2022/01/17 09:31:00;;;;;;;36.17;16.50;;;;;;;5.36;100.00;103308.06;5025375;28;20104;-60
2022/01/17 09:33:26;;;;;;;36.97;17.30;;;;;;;5.30;100.00;103311.34;5024755;28;20129;-60
2022/01/17 09:35:51;;;;;;;36.70;16.23;;;;;;;5.26;100.00;103306.31;5025030;28;20113;-60
2022/01/17 09:38:18;;;;;;;33.17;16.92;;;;;;;5.31;100.00;103293.13;5023338;28;20021;-60
2022/01/17 09:40:43;;;;;;;36.33;17.67;;;;;;;5.25;100.00;103302.72;5023507;28;20040;-60
2022/01/17 09:43:09;;;;;;;37.05;17.23;;;;;;;5.27;100.00;103305.28;5024815;28;20037;-60
2022/01/17 09:45:35;;;;;;;37.83;19.10;;;;;;;5.24;100.00;103313.75;5024338;28;20037;-60
2022/01/17 09:48:02;;;;;;;37.60;15.82;;;;;;;5.26;100.00;103328.09;5024758;28;20048;-60
2022/01/17 09:50:34;;;;;;;40.33;15.95;;;;;;;5.25;100.00;103323.66;5020869;28;20040;-60
2022/01/17 09:53:01;;;;;;;32.03;15.20;;;;;;;5.27;100.00;103341.59;5016671;28;20388;-60
2022/01/17 09:55:29;;;;;;;32.83;15.52;;;;;;;5.28;100.00;103350.66;5024637;28;20045;-60
2022/01/17 09:58:07;;;;;;;33.42;14.25;;;;;;;5.29;100.00;103336.88;5020131;28;20497;-60
2022/01/17 10:00:39;;;;;;;37.53;14.67;;;;;;;5.28;100.00;103351.50;5014118;28;20029;-61
2022/01/17 10:03:10;;;;;;;27.48;14.25;;;;;;;5.33;100.00;103370.19;5022327;28;20291;-61
2022/01/17 10:05:37;;;;;;;36.20;14.40;;;;;;;5.33;100.00;103341.06;5011642;28;20029;-60
2022/01/17 10:08:04;;;;;;;33.72;14.65;;;;;;;5.34;100.00;103345.50;5023197;28;20016;-61
2022/01/17 10:10:33;;;;;;;31.83;13.30;;;;;;;5.36;100.00;103348.09;5018550;28;20091;-60
2022/01/17 10:13:26;;;;;;;34.15;13.80;;;;;;;5.38;100.00;103343.38;5028649;28;20524;-60
2022/01/17 10:16:19;;;;;;;31.48;13.63;;;;;;;5.51;100.00;103352.19;5018535;28;20056;-60
2022/01/17 10:18:46;;;;;;;29.90;12.23;;;;;;;5.45;100.00;103344.56;5009051;28;20045;-60
2022/01/17 10:21:19;;;;;;;31.55;12.13;;;;;;;5.47;100.00;103350.72;5020610;28;20006;-61
2022/01/17 10:35:11;;;;;;;33.00;10.63;;;;;;;5.64;100.00;103351.97;5032063;28;20118;-62
2022/01/17 10:37:36;;;;;;;32.05;11.18;;;;;;;5.70;100.00;103376.81;5027242;28;20049;-61
2022/01/17 10:40:09;;;;;;;28.33;10.55;;;;;;;5.74;100.00;103366.50;5017757;28;20629;-62
2022/01/17 10:42:41;;;;;;;29.17;10.68;;;;;;;5.79;100.00;103371.56;5004319;28;20041;-61
2022/01/17 10:45:10;;;;;;;30.52;10.02;;;;;;;5.83;100.00;103371.16;5023907;28;20084;-62
2022/01/17 10:47:39;;;;;;;28.67;9.57;;;;;;;5.88;100.00;103366.13;5023640;28;20036;-61
2022/01/17 10:50:10;;;;;;;23.67;9.10;;;;;;;5.87;100.00;103367.13;5023100;28;20172;-62
2022/01/17 10:52:42;;;;;;;27.52;10.35;;;;;;;5.87;100.00;103358.06;5016857;28;20026;-62
2022/01/17 10:55:25;;;;;;;24.45;8.90;;;;;;;5.90;100.00;103376.91;5006054;28;20176;-61
2022/01/17 10:57:57;;;;;;;25.85;8.68;;;;;;;6.03;99.27;103373.94;5023481;28;20353;-61
2022/01/17 11:00:27;;;;;;;32.50;9.27;;;;;;;6.03;99.97;103379.41;5023498;28;20430;-61
2022/01/17 11:02:54;;;;;;;25.40;8.65;;;;;;;6.08;99.52;103377.97;5023413;28;20049;-61
2022/01/17 11:05:22;;;;;;;33.33;8.13;;;;;;;6.12;99.33;103392.22;5038236;28;20033;-61
2022/01/17 11:07:51;;;;;;;29.40;8.95;;;;;;;6.14;98.87;103391.09;5018859;28;20017;-61
2022/01/17 11:10:43;;;;;;;27.55;9.13;;;;;;;6.15;99.07;103401.00;5001934;28;20113;-61
2022/01/17 11:13:12;;;;;;;26.23;8.27;;;;;;;6.17;98.52;103407.16;5018493;28;20026;-61
2022/01/17 11:15:39;;;;;;;28.13;8.15;;;;;;;6.23;97.85;103397.56;5022351;28;20026;-61
2022/01/17 11:18:21;;;;;;;31.77;8.13;;;;;;;6.21;98.66;103397.72;5023132;28;20041;-62
2022/01/17 11:20:50;;;;;;;26.73;8.82;;;;;;;6.24;98.75;103410.22;5011866;28;20057;-61
2022/01/17 11:23:17;;;;;;;25.55;8.25;;;;;;;6.27;98.78;103388.09;5021897;28;20026;-61
2022/01/17 11:25:44;;;;;;;32.60;7.88;;;;;;;6.37;97.25;103377.19;5023441;28;20037;-61
2022/01/17 11:28:11;;;;;;;28.42;7.70;;;;;;;6.37;98.51;103394.44;5018841;28;20043;-61
2022/01/17 11:30:38;;;;;;;24.83;9.18;;;;;;;6.37;98.37;103380.78;5023319;28;20116;-61
2022/01/17 11:33:09;;;;;;;28.73;9.23;;;;;;;6.37;98.59;103379.94;5022741;28;20024;-62
2022/01/17 11:35:40;;;;;;;28.00;9.20;;;;;;;6.40;98.24;103374.19;5020595;28;20539;-61
2022/01/17 11:38:10;;;;;;;29.38;9.50;;;;;;;6.48;98.46;103363.41;5021413;28;20155;-61
2022/01/17 11:40:38;;;;;;;28.08;8.23;;;;;;;6.55;98.07;103361.88;5022985;28;20167;-62